createdAt,value
2023-01-09T00:00:39.007Z,71.46
2023-01-09T00:03:07.361Z,71.76
2023-01-09T00:05:33.728Z,71.46
2023-01-09T00:08:01.082Z,72.06
2023-01-09T00:10:28.817Z,70.60
2023-01-09T00:12:55.421Z,71.12
2023-01-09T00:15:21.741Z,71.00
2023-01-09T00:17:48.171Z,71.04
2023-01-09T00:20:14.525Z,71.32
2023-01-09T00:22:40.851Z,72.16
2023-01-09T00:25:07.368Z,71.71
2023-01-09T00:27:34.070Z,71.90
2023-01-09T00:30:00.619Z,71.48
2023-01-09T00:32:27.218Z,71.96
2023-01-09T00:34:55.790Z,71.48
2023-01-09T00:37:22.382Z,71.26
2023-01-09T00:39:49.713Z,71.34
2023-01-09T00:42:16.101Z,71.38
2023-01-09T00:44:42.457Z,71.95
2023-01-09T00:47:10.303Z,72.76
2023-01-09T00:49:36.639Z,73.00
2023-01-09T00:52:02.975Z,72.93
2023-01-09T00:54:29.383Z,74.47
2023-01-09T00:56:55.780Z,73.66
2023-01-09T00:59:22.158Z,73.83
2023-01-09T01:01:51.122Z,74.44
2023-01-09T01:04:17.491Z,73.85
2023-01-09T01:06:44.877Z,73.92
2023-01-09T01:09:11.431Z,74.37
2023-01-09T01:11:38.203Z,74.27
2023-01-09T01:14:04.532Z,75.52
2023-01-09T01:16:31.598Z,76.74
2023-01-09T01:18:57.992Z,78.04
2023-01-09T01:21:24.365Z,78.50
2023-01-09T01:23:52.709Z,80.91
2023-01-09T01:26:19.194Z,83.20
2023-01-09T01:28:47.773Z,82.59
2023-01-09T01:31:14.140Z,83.15
2023-01-09T01:33:40.478Z,82.48
2023-01-09T01:36:06.864Z,83.18
2023-01-09T01:38:33.510Z,82.90
2023-01-09T01:40:59.855Z,81.86
2023-01-09T01:43:28.297Z,81.49
2023-01-09T01:45:54.803Z,79.41
2023-01-09T01:48:21.395Z,80.63
2023-01-09T01:50:48.089Z,80.22
2023-01-09T01:53:14.424Z,80.70
2023-01-09T01:55:40.828Z,80.92
2023-01-09T01:58:07.162Z,81.05
2023-01-09T02:00:33.487Z,81.54
2023-01-09T02:02:59.887Z,81.04
2023-01-09T02:05:26.235Z,81.21
2023-01-09T02:07:52.640Z,81.04
2023-01-09T02:10:18.969Z,80.62
2023-01-09T02:12:45.644Z,80.46
2023-01-09T02:15:11.974Z,80.88
2023-01-09T02:17:38.530Z,79.51
2023-01-09T02:20:05.678Z,79.61
2023-01-09T02:22:32.351Z,78.89
2023-01-09T02:24:58.694Z,79.62
2023-01-09T02:27:25.162Z,79.71
2023-01-09T02:29:51.527Z,79.14
2023-01-09T02:32:18.349Z,78.53
2023-01-09T02:34:44.690Z,79.17
2023-01-09T02:37:11.056Z,79.60
2023-01-09T02:39:37.428Z,79.05
2023-01-09T02:42:03.892Z,79.57
2023-01-09T02:44:30.223Z,80.49
2023-01-09T02:46:56.593Z,79.95
2023-01-09T02:49:22.981Z,79.47
2023-01-09T02:51:49.407Z,79.14
2023-01-09T02:54:18.025Z,79.95
2023-01-09T02:56:44.358Z,80.46
2023-01-09T02:59:10.681Z,79.69
2023-01-09T03:01:37.112Z,78.63
2023-01-09T03:04:03.509Z,79.14
2023-01-09T03:06:31.918Z,78.26
2023-01-09T03:08:58.265Z,78.32
2023-01-09T03:11:24.642Z,78.36
2023-01-09T03:13:51.007Z,76.93
2023-01-09T03:16:17.434Z,76.88
2023-01-09T03:18:43.849Z,76.37
2023-01-09T03:21:10.322Z,77.25
2023-01-09T03:23:36.691Z,76.83
2023-01-09T03:26:03.157Z,75.85
2023-01-09T03:28:29.483Z,76.47
2023-01-09T03:30:55.808Z,75.85
2023-01-09T03:33:22.348Z,75.15
2023-01-09T03:35:48.694Z,75.06
2023-01-09T03:38:15.035Z,75.67
2023-01-09T03:40:41.578Z,75.79
2023-01-09T03:43:07.921Z,77.19
2023-01-09T03:45:34.306Z,78.34
2023-01-09T03:48:02.693Z,80.15
2023-01-09T03:50:29.057Z,80.43
2023-01-09T03:52:55.448Z,80.56
2023-01-09T03:55:23.909Z,81.60
2023-01-09T03:57:50.458Z,81.05
2023-01-09T04:00:16.816Z,81.15
2023-01-09T04:02:43.174Z,81.82
2023-01-09T04:05:09.566Z,82.18
2023-01-09T04:07:35.953Z,82.04
2023-01-09T04:10:02.298Z,81.50
2023-01-09T04:12:30.977Z,81.86
2023-01-09T04:14:57.322Z,81.40
2023-01-09T04:17:23.759Z,80.68
2023-01-09T04:19:50.460Z,80.35
2023-01-09T04:22:16.787Z,79.65
2023-01-09T04:24:43.228Z,80.24
2023-01-09T04:27:09.607Z,79.71
2023-01-09T04:29:35.987Z,79.42
2023-01-09T04:32:02.430Z,79.81
2023-01-09T04:34:28.802Z,79.66
2023-01-09T04:36:55.232Z,79.31
2023-01-09T04:39:21.861Z,79.11
2023-01-09T04:41:48.239Z,79.36
2023-01-09T04:44:14.702Z,79.88
2023-01-09T04:46:41.033Z,79.32
2023-01-09T04:49:07.388Z,78.97
2023-01-09T04:51:33.860Z,78.86
2023-01-09T04:54:01.193Z,79.33
2023-01-09T04:56:27.564Z,78.41
2023-01-09T04:58:54.995Z,78.27
2023-01-09T05:01:21.540Z,78.55
2023-01-09T05:03:50.216Z,78.03
2023-01-09T05:06:19.022Z,76.92
2023-01-09T05:08:45.379Z,77.35
2023-01-09T05:11:11.752Z,76.72
2023-01-09T05:13:45.516Z,76.94
2023-01-09T05:16:11.972Z,76.26
2023-01-09T05:18:38.375Z,75.94
2023-01-09T05:21:04.727Z,75.15
2023-01-09T05:23:31.319Z,75.67
2023-01-09T05:25:57.690Z,75.91
2023-01-09T05:28:24.325Z,75.46
2023-01-09T05:30:50.883Z,74.90
2023-01-09T05:33:17.434Z,74.72
2023-01-09T05:35:44.127Z,74.28
2023-01-09T05:38:11.185Z,73.95
2023-01-09T05:40:40.638Z,74.30
2023-01-09T05:43:07.213Z,72.93
2023-01-09T05:45:33.616Z,72.32
2023-01-09T05:48:00.214Z,71.90
2023-01-09T05:50:27.188Z,71.21
2023-01-09T05:52:53.969Z,70.36
2023-01-09T05:55:20.359Z,68.97
2023-01-09T05:57:46.775Z,69.46
2023-01-09T06:00:13.319Z,68.87
2023-01-09T06:02:39.912Z,69.10
2023-01-09T06:05:06.418Z,70.42
2023-01-09T06:07:32.779Z,68.74
2023-01-09T06:09:59.204Z,69.34
2023-01-09T06:12:25.701Z,70.37
2023-01-09T06:14:53.099Z,70.42
2023-01-09T06:17:19.579Z,69.62
2023-01-09T06:19:46.037Z,70.32
2023-01-09T06:22:12.412Z,70.85
2023-01-09T06:24:38.752Z,71.33
2023-01-09T06:27:05.119Z,70.45
2023-01-09T06:29:31.517Z,70.52
2023-01-09T06:32:01.211Z,69.56
2023-01-09T06:34:27.575Z,67.36
2023-01-09T06:36:54.331Z,66.68
2023-01-09T06:39:20.675Z,66.38
2023-01-09T06:41:48.472Z,66.55
2023-01-09T06:44:16.225Z,65.78
2023-01-09T06:46:42.612Z,67.63
2023-01-09T06:49:11.114Z,67.27
2023-01-09T06:51:37.664Z,67.16
2023-01-09T06:54:04.260Z,66.94
2023-01-09T06:56:30.732Z,65.76
2023-01-09T06:58:57.109Z,66.94
2023-01-09T07:01:23.598Z,64.90
2023-01-09T07:03:50.129Z,65.40
2023-01-09T07:06:16.615Z,64.50
2023-01-09T07:08:43.171Z,65.21
2023-01-09T07:11:10.528Z,64.36
2023-01-09T07:13:37.107Z,64.39
2023-01-09T07:16:03.578Z,64.86
2023-01-09T07:18:30.027Z,64.67
2023-01-09T07:20:56.368Z,64.53
2023-01-09T07:23:22.746Z,64.16
2023-01-09T07:25:49.078Z,64.50
2023-01-09T07:28:15.748Z,64.16
2023-01-09T07:30:42.102Z,64.50
2023-01-09T07:33:08.438Z,64.43
2023-01-09T07:35:34.816Z,64.58
2023-01-09T07:38:01.424Z,64.50
2023-01-09T07:40:27.966Z,65.37
2023-01-09T07:42:54.590Z,65.03
2023-01-09T07:45:20.938Z,65.37
2023-01-09T07:47:47.318Z,64.98
2023-01-09T07:50:13.941Z,64.04
2023-01-09T07:52:41.311Z,65.69
2023-01-09T07:55:07.836Z,65.23
2023-01-09T07:57:34.230Z,63.77
2023-01-09T08:00:02.937Z,63.85
2023-01-09T08:02:30.286Z,62.83
2023-01-09T08:04:57.018Z,63.15
2023-01-09T08:07:23.383Z,62.29
2023-01-09T08:09:49.748Z,62.51
2023-01-09T08:12:16.128Z,62.63
2023-01-09T08:14:42.514Z,62.16
2023-01-09T08:17:09.247Z,61.69
2023-01-09T08:19:35.883Z,61.82
2023-01-09T08:22:04.658Z,61.11
2023-01-09T08:24:31.298Z,60.56
2023-01-09T08:26:57.688Z,60.75
2023-01-09T08:29:26.014Z,61.44
2023-01-09T08:31:53.256Z,60.29
2023-01-09T08:34:19.778Z,60.25
2023-01-09T08:36:48.409Z,60.06
2023-01-09T08:39:17.282Z,59.82
2023-01-09T08:41:43.724Z,58.94
2023-01-09T08:44:10.207Z,57.83
2023-01-09T08:46:36.625Z,57.53
2023-01-09T08:49:03.167Z,58.21
2023-01-09T08:51:29.622Z,58.78
2023-01-09T08:53:55.943Z,58.45
2023-01-09T08:56:22.460Z,59.29
2023-01-09T08:58:50.738Z,57.46
2023-01-09T09:01:17.197Z,57.76
2023-01-09T09:03:43.740Z,56.90
2023-01-09T09:06:10.293Z,57.20
2023-01-09T09:08:36.735Z,57.75
2023-01-09T09:11:03.212Z,57.18
2023-01-09T09:13:29.581Z,56.19
2023-01-09T09:15:56.271Z,57.70
2023-01-09T09:18:25.726Z,56.17
2023-01-09T09:20:54.722Z,56.37
2023-01-09T09:23:22.354Z,56.70
2023-01-09T09:25:48.880Z,56.19
2023-01-09T09:28:16.247Z,56.05
2023-01-09T09:30:42.590Z,55.63
2023-01-09T09:33:09.370Z,56.04
2023-01-09T09:35:36.937Z,55.26
2023-01-09T09:38:05.195Z,54.73
2023-01-09T09:40:32.014Z,53.37
2023-01-09T09:42:58.370Z,55.24
2023-01-09T09:45:24.952Z,54.12
2023-01-09T09:47:51.321Z,53.46
2023-01-09T09:50:17.698Z,54.10
2023-01-09T09:52:44.275Z,55.90
2023-01-09T09:55:10.779Z,55.74
2023-01-09T09:57:37.446Z,56.11
2023-01-09T10:00:06.151Z,54.79
2023-01-09T10:02:32.517Z,55.04
2023-01-09T10:04:59.900Z,56.47
2023-01-09T10:07:26.286Z,55.96
2023-01-09T10:09:53.867Z,55.43
2023-01-09T10:12:20.199Z,57.27
2023-01-09T10:14:46.539Z,57.85
2023-01-09T10:17:13.944Z,56.97
2023-01-09T10:19:41.279Z,58.50
2023-01-09T10:22:07.621Z,59.53
2023-01-09T10:24:34.003Z,59.59
2023-01-09T10:27:00.402Z,59.53
2023-01-09T10:29:26.753Z,61.26
2023-01-09T10:31:54.157Z,60.82
2023-01-09T10:34:20.779Z,61.88
2023-01-09T10:36:50.561Z,62.15
2023-01-09T10:39:18.107Z,62.21
2023-01-09T10:41:44.498Z,63.25
2023-01-09T10:44:11.171Z,64.18
2023-01-09T10:46:37.812Z,64.88
2023-01-09T10:49:06.906Z,65.07
2023-01-09T10:51:33.360Z,65.80
2023-01-09T10:54:02.906Z,65.56
2023-01-09T10:56:32.748Z,66.75
2023-01-09T10:58:59.404Z,67.10
2023-01-09T11:01:26.857Z,67.85
2023-01-09T11:03:53.273Z,67.39
2023-01-09T11:06:19.709Z,68.39
2023-01-09T11:08:46.112Z,68.80
2023-01-09T11:11:12.689Z,68.74
2023-01-09T11:13:41.425Z,68.33
2023-01-09T11:16:08.567Z,67.80
2023-01-09T11:18:35.110Z,67.31
2023-01-09T11:21:01.517Z,66.73
2023-01-09T11:23:27.911Z,66.00
2023-01-09T11:25:55.288Z,67.08
2023-01-09T11:28:21.683Z,66.41
2023-01-09T11:30:48.315Z,66.39
2023-01-09T11:33:14.714Z,64.69
2023-01-09T11:35:41.183Z,63.80
2023-01-09T11:38:07.599Z,63.89
2023-01-09T11:40:33.978Z,63.99
2023-01-09T11:43:02.569Z,64.07
2023-01-09T11:45:28.943Z,63.63
2023-01-09T11:47:55.327Z,62.46
2023-01-09T11:50:21.710Z,63.41
2023-01-09T11:52:48.067Z,64.56
2023-01-09T11:55:14.456Z,64.61
2023-01-09T11:57:40.840Z,65.30
2023-01-09T12:00:07.225Z,65.34
2023-01-09T12:02:33.632Z,65.33
2023-01-09T12:05:00.013Z,65.14
2023-01-09T12:07:26.386Z,65.97
2023-01-09T12:09:53.020Z,65.19
2023-01-09T12:12:19.684Z,65.11
2023-01-09T12:14:46.095Z,64.94
2023-01-09T12:17:12.473Z,63.62
2023-01-09T12:19:38.872Z,63.20
2023-01-09T12:22:05.247Z,64.33
2023-01-09T12:24:31.588Z,65.32
2023-01-09T12:26:59.191Z,65.73
2023-01-09T12:29:25.546Z,65.54
2023-01-09T12:31:51.939Z,66.07
2023-01-09T12:34:18.348Z,64.96
2023-01-09T12:36:44.808Z,64.82
2023-01-09T12:39:13.541Z,64.62
2023-01-09T12:41:44.738Z,64.06
2023-01-09T12:44:11.092Z,64.65
2023-01-09T12:46:41.823Z,66.22
2023-01-09T12:49:08.391Z,64.52
2023-01-09T12:51:34.724Z,65.03
2023-01-09T12:54:01.061Z,64.76
2023-01-09T12:56:27.433Z,64.37
2023-01-09T12:58:54.031Z,64.41
2023-01-09T13:01:20.426Z,63.82
2023-01-09T13:03:46.883Z,64.44
2023-01-09T13:06:14.850Z,65.31
2023-01-09T13:08:41.213Z,66.32
2023-01-09T13:11:19.389Z,67.08
2023-01-09T13:13:46.509Z,67.18
2023-01-09T13:16:12.962Z,67.67
2023-01-09T13:18:40.120Z,67.88
2023-01-09T13:21:06.484Z,69.23
2023-01-09T13:23:32.841Z,68.80
2023-01-09T13:26:06.538Z,69.85
2023-01-09T13:28:33.288Z,71.89
2023-01-09T13:30:59.605Z,71.73
2023-01-09T13:33:26.049Z,71.92
2023-01-09T13:35:52.705Z,72.20
2023-01-09T13:38:19.397Z,73.79
2023-01-09T13:40:47.490Z,75.54
2023-01-09T13:43:18.408Z,76.60
2023-01-09T13:45:45.151Z,77.54
2023-01-09T13:48:11.609Z,78.78
2023-01-09T13:50:37.952Z,79.01
2023-01-09T13:53:04.478Z,79.46
2023-01-09T13:55:31.084Z,79.81
2023-01-09T13:57:57.461Z,81.02
2023-01-09T14:00:26.093Z,80.73
2023-01-09T14:02:53.482Z,80.75
2023-01-09T14:05:19.848Z,80.80
2023-01-09T14:07:46.226Z,81.10
2023-01-09T14:10:15.806Z,80.57
2023-01-09T14:12:42.242Z,81.14
2023-01-09T14:15:10.941Z,80.89
2023-01-09T14:17:37.445Z,80.48
2023-01-09T14:20:04.026Z,80.44
2023-01-09T14:22:31.345Z,79.57
2023-01-09T14:25:00.545Z,79.48
2023-01-09T14:27:28.919Z,78.73
2023-01-09T14:29:56.180Z,78.99
2023-01-09T14:32:24.897Z,78.54
2023-01-09T14:34:52.537Z,78.49
2023-01-09T14:37:19.736Z,78.49
2023-01-09T14:39:46.336Z,78.67
2023-01-09T14:42:12.743Z,77.57
2023-01-09T14:44:40.533Z,78.45
2023-01-09T14:47:07.476Z,77.23
2023-01-09T14:49:33.901Z,77.00
2023-01-09T14:52:00.765Z,76.37
2023-01-09T14:54:27.238Z,74.75
2023-01-09T14:56:55.857Z,75.47
2023-01-09T14:59:23.235Z,75.77
2023-01-09T15:01:50.054Z,75.67
2023-01-09T15:04:16.465Z,74.52
2023-01-09T15:06:43.004Z,74.69
2023-01-09T15:09:09.411Z,74.28
2023-01-09T15:11:35.803Z,74.99
2023-01-09T15:14:03.783Z,73.88
2023-01-09T15:16:31.857Z,74.21
2023-01-09T15:18:58.230Z,74.07
2023-01-09T15:21:34.107Z,73.08
2023-01-09T15:24:00.737Z,73.59
2023-01-09T15:26:27.719Z,72.63
2023-01-09T15:28:56.416Z,72.00
2023-01-09T15:31:22.845Z,71.92
2023-01-09T15:33:53.860Z,71.92
2023-01-09T15:36:20.932Z,71.05
2023-01-09T15:38:48.293Z,70.22
2023-01-09T15:41:14.618Z,71.45
2023-01-09T15:43:40.966Z,71.75
2023-01-09T15:46:07.628Z,70.89
2023-01-09T15:48:33.987Z,70.97
2023-01-09T15:51:00.389Z,70.35
2023-01-09T15:53:26.734Z,71.01
2023-01-09T15:55:55.564Z,70.41
2023-01-09T15:58:22.123Z,70.82
2023-01-09T16:00:51.436Z,72.06
2023-01-09T16:03:18.041Z,71.78
2023-01-09T16:05:44.434Z,71.75
2023-01-09T16:08:11.367Z,72.08
2023-01-09T16:10:41.188Z,71.56
2023-01-09T16:13:07.553Z,72.41
2023-01-09T16:15:34.343Z,71.98
2023-01-09T16:18:03.089Z,70.86
2023-01-09T16:20:29.472Z,71.57
2023-01-09T16:22:55.862Z,72.32
2023-01-09T16:25:22.242Z,71.47
2023-01-09T16:27:48.629Z,71.48
2023-01-09T16:30:16.654Z,71.35
2023-01-09T16:32:43.379Z,71.28
2023-01-09T16:35:09.757Z,72.24
2023-01-09T16:37:36.174Z,72.10
2023-01-09T16:40:02.512Z,71.96
2023-01-09T16:42:28.862Z,71.45
2023-01-09T16:44:55.234Z,71.37
2023-01-09T16:47:21.627Z,72.87
2023-01-09T16:49:48.015Z,72.65
2023-01-09T16:52:14.390Z,72.90
2023-01-09T16:54:40.729Z,72.54
2023-01-09T16:57:07.100Z,73.48
2023-01-09T16:59:34.317Z,73.20
2023-01-09T17:02:00.836Z,73.16
2023-01-09T17:04:27.409Z,72.88
2023-01-09T17:06:53.803Z,73.17
2023-01-09T17:09:20.170Z,74.56
2023-01-09T17:11:47.236Z,73.85
2023-01-09T17:14:14.339Z,73.38
2023-01-09T17:16:41.164Z,73.45
2023-01-09T17:19:07.571Z,73.82
2023-01-09T17:21:33.928Z,74.58
2023-01-09T17:24:00.321Z,75.07
2023-01-09T17:26:26.692Z,75.32
2023-01-09T17:28:53.078Z,75.51
2023-01-09T17:31:19.772Z,75.42
2023-01-09T17:33:46.153Z,76.06
2023-01-09T17:36:12.598Z,76.53
2023-01-09T17:38:39.024Z,77.17
2023-01-09T17:41:05.465Z,77.38
2023-01-09T17:43:31.832Z,76.68
2023-01-09T17:45:58.330Z,76.44
2023-01-09T17:48:25.191Z,76.65
2023-01-09T17:50:51.704Z,76.83
2023-01-09T17:53:18.076Z,76.75
2023-01-09T17:55:44.539Z,76.83
2023-01-09T17:58:10.886Z,77.29
2023-01-09T18:00:37.326Z,76.84
2023-01-09T18:03:03.702Z,76.39
2023-01-09T18:05:30.047Z,77.56
2023-01-09T18:07:56.600Z,76.71
2023-01-09T18:10:23.045Z,77.42
2023-01-09T18:12:49.732Z,76.57
2023-01-09T18:15:16.436Z,76.71
2023-01-09T18:17:42.842Z,76.75
2023-01-09T18:20:09.476Z,76.81
2023-01-09T18:22:35.797Z,76.77
2023-01-09T18:25:02.478Z,76.62
2023-01-09T18:27:28.905Z,76.07
2023-01-09T18:29:56.317Z,76.57
2023-01-09T18:32:22.881Z,76.21
2023-01-09T18:34:49.221Z,76.37
2023-01-09T18:37:15.731Z,76.46
2023-01-09T18:39:43.143Z,76.39
2023-01-09T18:42:09.532Z,76.46
2023-01-09T18:44:35.937Z,76.15
2023-01-09T18:47:02.533Z,75.62
2023-01-09T18:49:28.911Z,76.05
2023-01-09T18:51:55.385Z,76.61
2023-01-09T18:54:21.749Z,77.03
2023-01-09T18:56:48.078Z,76.44
2023-01-09T18:59:14.418Z,75.30
2023-01-09T19:01:46.994Z,76.00
2023-01-09T19:04:13.481Z,75.72
2023-01-09T19:06:40.162Z,76.45
2023-01-09T19:09:07.527Z,75.90
2023-01-09T19:11:33.935Z,74.98
2023-01-09T19:14:00.307Z,75.98
2023-01-09T19:16:26.773Z,75.45
2023-01-09T19:18:53.195Z,75.63
2023-01-09T19:21:19.795Z,75.25
2023-01-09T19:23:47.197Z,74.18
2023-01-09T19:26:13.647Z,74.71
2023-01-09T19:28:40.228Z,74.69
2023-01-09T19:31:06.599Z,73.52
2023-01-09T19:33:35.287Z,74.21
2023-01-09T19:36:01.882Z,74.36
2023-01-09T19:38:28.269Z,73.59
2023-01-09T19:40:54.613Z,72.80
2023-01-09T19:43:21.074Z,73.18
2023-01-09T19:45:47.478Z,72.77
2023-01-09T19:48:13.854Z,73.13
2023-01-09T19:50:40.244Z,73.35
2023-01-09T19:53:06.665Z,73.42
2023-01-09T19:55:33.256Z,74.63
2023-01-09T19:57:59.595Z,76.19
2023-01-09T20:00:26.119Z,75.59
2023-01-09T20:02:53.367Z,76.93
2023-01-09T20:05:20.003Z,76.38
2023-01-09T20:07:46.353Z,77.53
2023-01-09T20:10:12.703Z,77.11
2023-01-09T20:12:39.096Z,77.08
2023-01-09T20:15:05.450Z,76.86
2023-01-09T20:17:31.823Z,77.39
2023-01-09T20:19:59.271Z,77.23
2023-01-09T20:22:28.629Z,76.80
2023-01-09T20:24:57.045Z,77.23
2023-01-09T20:27:23.383Z,76.60
2023-01-09T20:29:49.710Z,75.75
2023-01-09T20:32:16.071Z,76.39
2023-01-09T20:34:42.447Z,75.84
2023-01-09T20:37:08.898Z,76.96
2023-01-09T20:39:35.625Z,76.78
2023-01-09T20:42:01.999Z,76.15
2023-01-09T20:44:28.391Z,76.37
2023-01-09T20:46:54.753Z,76.84
2023-01-09T20:49:21.115Z,77.34
2023-01-09T20:51:49.765Z,77.08
2023-01-09T20:54:16.143Z,76.64
2023-01-09T20:56:42.519Z,77.13
2023-01-09T20:59:08.901Z,76.95
2023-01-09T21:01:35.289Z,77.26
2023-01-09T21:04:01.767Z,76.98
2023-01-09T21:06:28.627Z,77.09
2023-01-09T21:08:55.044Z,77.82
2023-01-09T21:11:21.878Z,77.90
2023-01-09T21:13:48.827Z,78.07
2023-01-09T21:16:15.309Z,77.46
2023-01-09T21:18:41.718Z,78.23
2023-01-09T21:21:08.210Z,78.34
2023-01-09T21:23:34.596Z,78.49
2023-01-09T21:26:00.985Z,78.33
2023-01-09T21:28:27.404Z,79.39
2023-01-09T21:30:56.083Z,78.85
2023-01-09T21:33:22.604Z,79.13
2023-01-09T21:35:48.980Z,78.89
2023-01-09T21:38:15.359Z,78.85
2023-01-09T21:40:41.740Z,78.53
2023-01-09T21:43:08.085Z,78.65
2023-01-09T21:45:34.601Z,77.22
2023-01-09T21:48:01.057Z,77.36
2023-01-09T21:50:27.602Z,77.54
2023-01-09T21:52:53.946Z,77.49
2023-01-09T21:55:20.391Z,76.91
2023-01-09T21:57:47.410Z,76.46
2023-01-09T22:00:15.908Z,76.86
2023-01-09T22:02:42.630Z,76.56
2023-01-09T22:05:08.967Z,76.84
2023-01-09T22:07:35.298Z,77.04
2023-01-09T22:10:01.746Z,76.11
2023-01-09T22:12:28.113Z,76.12
2023-01-09T22:14:54.451Z,77.13
2023-01-09T22:17:20.838Z,76.85
2023-01-09T22:19:47.231Z,76.58
2023-01-09T22:22:14.586Z,76.64
2023-01-09T22:24:40.958Z,77.20
2023-01-09T22:27:12.607Z,76.60
2023-01-09T22:29:39.969Z,76.24
2023-01-09T22:32:07.414Z,76.45
2023-01-09T22:34:33.930Z,76.42
2023-01-09T22:37:00.305Z,76.39
2023-01-09T22:39:26.740Z,76.30
2023-01-09T22:41:53.307Z,76.93
2023-01-09T22:44:19.937Z,76.28
2023-01-09T22:46:46.337Z,75.42
2023-01-09T22:49:14.983Z,75.70
2023-01-09T22:51:41.345Z,75.72
2023-01-09T22:54:07.916Z,76.78
2023-01-09T22:56:36.720Z,76.65
2023-01-09T22:59:03.102Z,77.60
2023-01-09T23:01:31.984Z,78.54
2023-01-09T23:03:58.331Z,79.33
2023-01-09T23:06:24.719Z,81.17
2023-01-09T23:08:51.121Z,82.31
2023-01-09T23:11:17.544Z,82.56
2023-01-09T23:13:43.908Z,82.68
2023-01-09T23:16:10.482Z,83.29
2023-01-09T23:18:39.195Z,83.06
2023-01-09T23:21:05.602Z,83.33
2023-01-09T23:23:32.163Z,82.48
2023-01-09T23:25:58.565Z,82.42
2023-01-09T23:28:24.903Z,82.10
2023-01-09T23:30:51.597Z,80.63
2023-01-09T23:33:18.016Z,80.80
2023-01-09T23:35:44.391Z,79.96
2023-01-09T23:38:10.748Z,80.02
2023-01-09T23:40:37.330Z,79.43
2023-01-09T23:43:03.706Z,79.19
2023-01-09T23:45:30.168Z,80.08
2023-01-09T23:47:56.571Z,79.75
2023-01-09T23:50:24.053Z,79.69
2023-01-09T23:52:51.479Z,79.69
2023-01-09T23:55:17.939Z,79.38
2023-01-09T23:57:44.347Z,78.97
